Norman Y. Mineta San Jose International Airport
KSJC : now visible

Airfield :











YOU CAN JOIN US ON...

 
LOGIN :

Register | Disclaimer

   EN    FR    IT 

 









Legend :    VFR   Marginal VFR   IFR   Intensive IFR   Very Intensive IFR
Visi :
Ceiling :
>= 8 km
>= 3000ft
5 to 8 km
1000 to 3000 ft
1500m to 5 km
500 to 1000 ft
800 to 1500m
200 to 500 ft
< 800m
< 200 ft
Symbols :   Thunderstorms  Fog  Heavy snow  Heavy precipitations  Wind > 20 kt






- Airport Elevation : 62 ft
- IATA code : SJC


KSJC - Norman Y. Mineta San Jose International

CURRENT METAR :
  • 020253Z 19003KT 10SM SCT021 SCT033 BKN120 09/06 A2997 RMK AO2 SLP148 60000 T00890061 53020

EXPIRED METARs :
  • 020153Z 23003KT 10SM FEW011 SCT024 OVC085 09/06 A2995 RMK AO2 SLP140 T00890061
  • 020053Z 13003KT 10SM FEW004 FEW011 BKN065 09/06 A2992 RMK AO2 RAE25 SLP132 P0000 T00890061

TAF KSJC
Valid from the 02 at 00:00 until the 03 at 00:00 UTC


012339Z 0200/0224 34010KT 6SM -RA FEW010 OVC040
FM020100 32009KT P6SM VCSH FEW015 BKN040
FM020400 VRB04KT P6SM FEW050
KZOA FIR / North America



MET'MAP, your aeronautical weather chart ! - Copyright ORBIFLY December 2007 - Disclaimer

ORBIFLY MET'MAP TEAM :

Programming & Development : Alexandra Zaïnal
Original concept : Baudouin d'Aumeries
Technical & hardware support : Manuel Goepfert
Assistance : Marc-Olivier Méhu




SOURCES & CREDITS :

   NOAA       Earth
Advisory